Time;durP1;ratioP1;P1;durP2;ratioP2;P2;SDS_P1;SDS_P2;PMS_P1;PMS_P2;Temp;Humidity;BMP_temperature;BMP_pressure;BME280_temperature;BME280_humidity;BME280_pressure;Samples;Min_cycle;Max_cycle;Signal;HPM_P1;HPM_P2
2023/02/05 00:01:36;;;;;;;48.03;24.00;;;2.20;99.90;;;1.64;100.00;99788.31;4962668;28;20050;-76
2023/02/05 00:04:04;;;;;;;59.38;26.70;;;2.10;99.90;;;1.40;100.00;99790.16;4961368;28;20047;-75
2023/02/05 00:06:31;;;;;;;56.35;27.25;;;2.10;99.90;;;1.41;100.00;99787.59;4960761;28;20051;-76
2023/02/05 00:08:58;;;;;;;55.92;26.98;;;2.20;99.90;;;1.49;100.00;99782.72;4959139;28;20146;-70
2023/02/05 00:11:25;;;;;;;51.90;24.25;;;2.20;99.90;;;1.53;100.00;99768.31;4959959;28;20051;-70
2023/02/05 00:13:53;;;;;;;45.47;20.35;;;2.30;99.90;;;1.86;100.00;99774.38;4951767;28;20054;-70
2023/02/05 00:16:23;;;;;;;38.80;19.88;;;2.30;99.90;;;2.12;100.00;99773.34;4962978;28;20047;-70
2023/02/05 00:18:51;;;;;;;47.17;22.55;;;2.40;99.90;;;2.24;100.00;99769.44;4950343;28;20103;-70
2023/02/05 00:21:21;;;;;;;46.05;22.83;;;2.50;99.90;;;2.04;100.00;99770.59;4960379;28;20070;-71
2023/02/05 00:23:49;;;;;;;46.08;23.55;;;2.60;99.90;;;2.00;100.00;99758.53;4966740;28;20367;-71
2023/02/05 00:26:16;;;;;;;39.38;21.13;;;2.70;99.90;;;2.12;100.00;99757.97;4977308;28;20113;-71
2023/02/05 00:28:44;;;;;;;46.80;23.30;;;2.70;99.90;;;1.94;100.00;99759.25;4959766;28;20046;-71
2023/02/05 00:31:20;;;;;;;47.58;23.42;;;2.70;99.90;;;1.81;100.00;99752.06;4950871;28;20153;-70
2023/02/05 00:33:50;;;;;;;50.83;26.08;;;2.70;99.90;;;1.79;100.00;99754.56;4960131;28;20120;-70
2023/02/05 00:36:21;;;;;;;54.08;26.98;;;2.70;99.90;;;1.71;100.00;99753.50;4941708;28;20077;-70
2023/02/05 00:38:50;;;;;;;48.42;24.33;;;2.70;99.90;;;1.50;100.00;99742.66;4964953;28;20141;-70
2023/02/05 00:41:19;;;;;;;45.22;21.10;;;2.60;99.90;;;1.40;100.00;99747.50;4966781;28;20050;-70
2023/02/05 00:43:46;;;;;;;44.38;22.75;;;2.50;99.90;;;1.35;100.00;99745.66;4957532;28;20059;-70
2023/02/05 00:46:14;;;;;;;46.90;22.92;;;2.50;99.90;;;1.51;100.00;99758.06;4961665;28;20058;-70
2023/02/05 00:48:42;;;;;;;39.83;19.45;;;2.40;99.90;;;1.84;100.00;99768.34;4960071;28;20055;-70
2023/02/05 00:51:10;;;;;;;42.60;20.70;;;2.40;99.90;;;1.96;100.00;99761.84;4958921;28;20047;-70
2023/02/05 00:53:38;;;;;;;40.97;20.75;;;2.40;99.90;;;1.77;100.00;99757.91;4964654;28;20050;-70
2023/02/05 00:56:05;;;;;;;37.15;19.45;;;2.60;99.90;;;1.82;100.00;99756.34;4961744;28;20039;-70
2023/02/05 00:58:33;;;;;;;38.63;19.40;;;2.60;99.90;;;1.84;100.00;99747.88;4958918;28;20058;-70
2023/02/05 01:01:00;;;;;;;42.30;21.27;;;2.50;99.90;;;1.74;100.00;99737.34;4956231;28;20043;-70
2023/02/05 01:03:27;;;;;;;40.83;20.90;;;2.50;99.90;;;1.77;100.00;99729.75;4964904;28;20051;-70
2023/02/05 01:05:54;;;;;;;42.53;21.33;;;2.50;99.90;;;1.70;100.00;99725.28;4961079;28;20059;-70
2023/02/05 01:08:22;;;;;;;54.30;24.80;;;2.50;99.90;;;1.73;100.00;99733.91;4959756;28;20051;-70
2023/02/05 01:10:51;;;;;;;41.65;20.38;;;2.60;99.90;;;1.72;100.00;99734.75;4950140;28;20085;-70
2023/02/05 01:13:18;;;;;;;48.05;21.58;;;2.60;99.90;;;1.58;100.00;99744.59;4965087;28;20057;-70
2023/02/05 01:15:46;;;;;;;50.20;21.42;;;2.50;99.90;;;1.50;100.00;99732.41;4975907;28;20055;-70
2023/02/05 01:18:13;;;;;;;37.33;18.20;;;2.50;99.90;;;1.46;100.00;99739.16;4965680;28;20047;-70
2023/02/05 01:20:42;;;;;;;41.63;20.92;;;2.50;99.90;;;1.53;100.00;99737.59;4964240;28;20054;-70
2023/02/05 01:23:10;;;;;;;40.80;17.92;;;2.40;99.90;;;1.42;100.00;99738.19;4962716;28;20055;-70
2023/02/05 01:25:38;;;;;;;38.95;17.00;;;2.40;99.90;;;1.35;100.00;99730.28;4964873;28;20812;-70
2023/02/05 01:28:05;;;;;;;40.47;17.52;;;2.40;99.90;;;1.33;100.00;99731.94;4964663;28;20126;-70
2023/02/05 01:30:34;;;;;;;35.15;16.20;;;2.40;99.90;;;1.44;100.00;99725.44;4965400;28;20086;-70
2023/02/05 01:33:02;;;;;;;33.28;16.08;;;2.40;99.90;;;1.45;100.00;99725.47;4966159;28;20042;-70
2023/02/05 01:35:30;;;;;;;34.88;15.60;;;2.40;99.90;;;1.42;100.00;99720.25;4963205;28;20051;-70
2023/02/05 01:37:57;;;;;;;32.33;15.45;;;2.40;99.90;;;1.41;100.00;99721.06;4960576;28;20043;-70
2023/02/05 01:40:25;;;;;;;34.35;15.20;;;2.40;99.90;;;1.40;100.00;99723.63;4959680;28;20477;-71
2023/02/05 01:42:52;;;;;;;31.08;13.85;;;2.40;99.90;;;1.43;100.00;99726.25;4958537;28;20051;-70
2023/02/05 01:45:21;;;;;;;37.08;15.15;;;2.40;99.90;;;1.41;100.00;99725.34;4957240;28;20066;-70
2023/02/05 01:47:56;;;;;;;28.48;13.55;;;2.40;99.90;;;1.56;100.00;99728.34;4964779;28;20050;-70
2023/02/05 01:50:36;;;;;;;35.15;14.60;;;2.40;99.90;;;1.58;100.00;99720.72;4963526;28;20058;-70
2023/02/05 01:53:24;;;;;;;39.67;15.27;;;2.30;99.90;;;1.55;100.00;99713.81;4948689;28;20117;-70
2023/02/05 01:56:00;;;;;;;28.75;14.13;;;2.40;99.90;;;1.53;100.00;99712.00;4961118;28;20062;-70
2023/02/05 01:58:34;;;;;;;39.88;14.15;;;2.40;99.90;;;1.57;100.00;99708.72;4963716;28;20061;-70
2023/02/05 02:01:01;;;;;;;29.55;14.52;;;2.40;99.90;;;1.47;100.00;99715.28;4959222;28;21693;-70
2023/02/05 02:03:30;;;;;;;30.60;15.20;;;2.40;99.90;;;1.47;100.00;99702.47;4959153;28;20062;-70
2023/02/05 02:05:58;;;;;;;30.73;15.52;;;2.40;99.90;;;1.53;100.00;99694.97;4962436;28;20139;-70
2023/02/05 02:08:25;;;;;;;34.72;15.27;;;2.40;99.90;;;1.61;100.00;99696.03;4960183;28;20051;-70
2023/02/05 02:10:54;;;;;;;31.88;15.13;;;2.50;99.90;;;1.72;100.00;99698.91;4965692;28;20069;-70
2023/02/05 02:13:22;;;;;;;35.10;16.05;;;2.50;99.90;;;1.70;100.00;99685.19;4964889;28;20050;-70
2023/02/05 02:15:50;;;;;;;29.17;14.75;;;2.50;99.90;;;1.70;100.00;99682.63;4965069;28;20062;-70
2023/02/05 02:18:27;;;;;;;34.15;15.65;;;2.50;99.90;;;1.73;100.00;99687.81;4946534;28;20526;-70
2023/02/05 02:21:19;;;;;;;41.88;16.08;;;2.50;99.90;;;1.66;100.00;99689.34;4965225;28;20127;-70
2023/02/05 02:24:32;;;;;;;30.42;13.95;;;2.60;99.90;;;2.13;100.00;99690.56;4957086;28;20061;-70
2023/02/05 02:27:58;;;;;;;23.55;12.35;;;2.50;99.90;;;2.37;100.00;99688.59;4959434;28;20046;-70
2023/02/05 02:30:38;;;;;;;31.83;13.48;;;2.60;99.90;;;2.36;100.00;99692.00;4958115;28;20063;-71
2023/02/05 02:33:08;;;;;;;26.17;8.82;;;2.70;99.90;;;2.73;100.00;99680.03;4975695;28;20047;-71
2023/02/05 02:35:47;;;;;;;27.77;8.30;;;;;;;3.01;100.00;99685.75;4960073;28;20047;-70
2023/02/05 02:38:28;;;;;;;22.25;7.57;;;3.10;99.90;;;3.15;100.00;99679.25;4960369;28;20528;-70
2023/02/05 02:41:06;;;;;;;21.42;7.85;;;3.30;99.90;;;3.33;100.00;99661.66;4961773;28;20709;-70
2023/02/05 02:43:50;;;;;;;25.33;8.15;;;3.60;99.90;;;3.49;100.00;99649.97;4961751;28;20158;-71
2023/02/05 02:46:35;;;;;;;23.42;8.30;;;3.60;99.90;;;3.50;100.00;99640.56;4964784;28;20590;-70
2023/02/05 02:49:07;;;;;;;21.13;7.55;;;3.80;99.90;;;3.45;100.00;99627.66;4959183;28;20495;-71
2023/02/05 02:51:37;;;;;;;27.83;7.50;;;3.80;99.90;;;3.61;100.00;99626.22;4960072;28;20104;-71
2023/02/05 02:54:08;;;;;;;23.50;7.82;;;3.90;99.90;;;3.59;100.00;99620.19;4960318;28;20410;-70
2023/02/05 02:56:38;;;;;;;24.75;7.15;;;3.90;99.90;;;3.60;100.00;99613.34;4957429;28;20054;-71
2023/02/05 02:59:15;;;;;;;24.05;8.20;;;3.90;99.90;;;3.61;100.00;99607.41;4960002;28;20047;-70
2023/02/05 03:01:48;;;;;;;20.83;8.35;;;3.90;99.90;;;3.70;100.00;99610.97;4962692;28;20046;-71
2023/02/05 03:04:56;;;;;;;26.70;8.13;;;3.90;99.90;;;3.76;100.00;99608.53;4960464;28;20053;-71
2023/02/05 03:07:34;;;;;;;26.13;8.48;;;4.00;99.90;;;3.70;100.00;99581.88;4955597;28;20047;-71
2023/02/05 03:10:29;;;;;;;25.63;9.00;;;4.00;99.90;;;3.62;100.00;99576.59;4964708;28;20050;-71
2023/02/05 03:12:57;;;;;;;20.73;8.35;;;3.90;99.90;;;3.65;100.00;99560.34;4961029;28;20413;-70
2023/02/05 03:15:24;;;;;;;29.13;8.35;;;3.90;99.90;;;3.65;100.00;99570.63;4954879;28;20785;-71
2023/02/05 03:17:54;;;;;;;19.33;7.88;;;3.80;99.90;;;3.72;100.00;99568.22;4961075;28;20045;-69
2023/02/05 03:20:28;;;;;;;20.88;8.38;;;3.90;99.90;;;3.76;100.00;99574.25;4957630;28;20059;-71
2023/02/05 03:22:56;;;;;;;29.10;8.98;;;3.90;99.90;;;3.81;100.00;99566.63;4965710;28;20422;-71
2023/02/05 03:25:27;;;;;;;28.50;9.18;;;3.90;99.90;;;3.80;100.00;99563.19;4963002;28;20366;-70
2023/02/05 03:27:55;;;;;;;24.23;9.00;;;4.00;99.90;;;3.71;100.00;99566.47;4962914;28;20429;-71
2023/02/05 03:30:29;;;;;;;23.50;8.18;;;4.00;99.90;;;3.71;100.00;99569.03;4962729;28;20127;-71
2023/02/05 03:33:11;;;;;;;23.02;8.65;;;4.00;99.90;;;3.74;100.00;99587.09;4962453;28;20130;-70
2023/02/05 03:35:58;;;;;;;21.55;9.07;;;4.10;99.90;;;3.70;100.00;99572.47;4975757;28;20761;-71
2023/02/05 03:39:05;;;;;;;23.60;8.65;;;4.10;99.90;;;3.64;100.00;99567.19;4964149;28;20078;-70
2023/02/05 03:42:26;;;;;;;30.38;9.15;;;4.00;99.90;;;3.68;100.00;99563.00;4977062;28;20051;-70
2023/02/05 03:45:17;;;;;;;23.50;8.85;;;4.00;99.90;;;3.63;100.00;99567.19;4960789;28;20127;-71
2023/02/05 03:48:19;;;;;;;24.70;8.90;;;4.00;99.90;;;3.62;100.00;99553.47;4949711;28;20071;-71
2023/02/05 03:51:42;;;;;;;27.65;9.77;;;4.00;99.90;;;3.72;100.00;99559.66;4961862;28;20060;-71
2023/02/05 03:54:12;;;;;;;24.83;9.07;;;3.90;99.90;;;3.56;100.00;99563.66;4967266;28;20114;-71
2023/02/05 03:57:19;;;;;;;23.83;8.38;;;4.00;99.90;;;3.70;100.00;99559.63;4962118;28;20051;-71
2023/02/05 03:59:48;;;;;;;24.70;8.48;;;4.00;99.90;;;3.67;100.00;99566.38;4965045;28;20059;-71
2023/02/05 04:02:16;;;;;;;21.67;8.30;;;4.00;99.90;;;3.84;100.00;99564.97;4980604;28;20055;-70
2023/02/05 04:04:43;;;;;;;32.60;10.65;;;4.10;99.90;;;3.55;100.00;99574.75;4967543;28;20051;-71
2023/02/05 04:07:12;;;;;;;23.95;8.45;;;4.10;99.90;;;3.77;100.00;99586.28;4978027;28;20107;-70
2023/02/05 04:09:39;;;;;;;20.88;8.07;;;4.10;99.90;;;3.92;100.00;99583.97;4958926;28;20050;-70
2023/02/05 04:12:07;;;;;;;23.10;9.30;;;4.20;99.90;;;4.05;100.00;99579.88;4964589;28;20502;-71
2023/02/05 04:14:33;;;;;;;18.45;9.20;;;4.20;99.90;;;4.03;100.00;99572.97;4962958;28;20533;-71
2023/02/05 04:17:00;;;;;;;21.52;9.98;;;4.20;99.90;;;3.80;100.00;99586.31;4961850;28;20077;-70
2023/02/05 04:19:27;;;;;;;25.85;9.45;;;4.20;99.90;;;3.86;100.00;99585.56;4966905;28;20047;-70
2023/02/05 04:21:54;;;;;;;25.73;9.52;;;4.10;99.90;;;3.67;100.00;99586.94;4977980;28;20394;-70
2023/02/05 04:24:21;;;;;;;27.02;9.00;;;4.10;99.90;;;3.68;100.00;99584.41;4961672;28;20063;-70
2023/02/05 04:26:49;;;;;;;23.30;8.90;;;4.00;99.90;;;3.71;100.00;99581.88;4964708;28;20053;-71
2023/02/05 04:29:16;;;;;;;26.60;9.88;;;4.00;99.90;;;3.66;100.00;99580.94;4961372;28;20058;-70
2023/02/05 04:31:43;;;;;;;31.58;9.82;;;3.90;99.90;;;3.58;100.00;99577.41;4964479;28;20059;-70
2023/02/05 04:34:11;;;;;;;29.98;10.70;;;3.90;99.90;;;3.74;100.00;99579.38;4962670;28;20049;-70
2023/02/05 04:36:39;;;;;;;24.92;9.82;;;3.90;99.90;;;3.58;100.00;99582.53;4965898;28;20051;-71
2023/02/05 04:39:06;;;;;;;30.48;10.98;;;3.90;99.90;;;3.46;100.00;99580.59;4966604;28;20047;-71
2023/02/05 04:41:33;;;;;;;28.50;10.38;;;4.00;99.90;;;3.53;100.00;99589.25;4962902;28;20046;-70
2023/02/05 04:44:00;;;;;;;29.50;9.98;;;4.00;99.90;;;3.46;100.00;99597.69;4960578;28;20528;-71
2023/02/05 04:46:27;;;;;;;26.67;11.50;;;3.90;99.90;;;3.33;100.00;99592.34;4962302;28;20063;-70
2023/02/05 04:48:55;;;;;;;27.48;11.70;;;3.90;99.90;;;3.27;100.00;99591.38;4959130;28;20127;-70
2023/02/05 04:51:22;;;;;;;27.10;10.60;;;3.80;99.90;;;3.18;100.00;99594.63;4962528;28;20428;-71
2023/02/05 04:53:49;;;;;;;29.35;11.30;;;3.80;99.90;;;3.27;100.00;99573.41;4960776;28;20042;-70
2023/02/05 04:56:16;;;;;;;29.83;12.15;;;3.80;99.90;;;3.23;100.00;99577.59;4960034;28;20490;-70
2023/02/05 04:58:44;;;;;;;39.80;12.23;;;3.80;99.90;;;3.20;100.00;99581.81;4962676;28;20066;-70
2023/02/05 05:01:19;;;;;;;33.13;11.13;;;3.70;99.90;;;3.12;100.00;99586.78;4962918;28;20063;-70
2023/02/05 05:03:46;;;;;;;31.15;11.98;;;3.80;99.90;;;3.18;100.00;99599.75;4961003;28;20349;-70
2023/02/05 05:06:14;;;;;;;33.15;13.18;;;3.80;99.90;;;3.18;100.00;99607.44;4965664;28;20087;-71
2023/02/05 05:08:41;;;;;;;33.13;13.18;;;3.90;99.90;;;3.24;100.00;99607.56;4977005;28;20699;-70
2023/02/05 05:11:12;;;;;;;30.95;12.70;;;3.90;99.90;;;3.21;100.00;99607.50;4962775;28;20054;-71
2023/02/05 05:13:39;;;;;;;37.42;13.52;;;3.90;99.90;;;3.09;100.00;99614.97;4959201;28;20482;-71
2023/02/05 05:16:08;;;;;;;29.05;12.75;;;3.90;99.90;;;3.18;100.00;99627.13;4960045;28;20069;-69
2023/02/05 05:18:35;;;;;;;27.98;12.25;;;3.80;99.90;;;3.13;100.00;99632.16;4960527;28;20063;-71
2023/02/05 05:21:04;;;;;;;38.80;14.10;;;3.80;99.90;;;3.19;100.00;99650.22;4974743;28;20051;-69
2023/02/05 05:23:33;;;;;;;41.92;14.57;;;3.80;99.90;;;3.17;100.00;99643.31;4958006;28;20572;-69
2023/02/05 05:26:07;;;;;;;33.42;13.77;;;3.80;99.90;;;3.36;100.00;99635.16;4962016;28;20058;-69
2023/02/05 05:28:35;;;;;;;38.58;15.68;;;3.80;99.90;;;3.19;100.00;99636.53;4975621;28;20062;-69
2023/02/05 05:31:08;;;;;;;33.63;14.23;;;3.90;99.90;;;3.19;100.00;99642.53;4964476;28;20065;-71
2023/02/05 05:33:36;;;;;;;31.77;13.90;;;3.90;99.90;;;3.25;100.00;99641.78;4961029;28;20047;-70
2023/02/05 05:36:05;;;;;;;36.03;13.52;;;3.80;99.90;;;3.34;100.00;99634.28;4975776;28;20063;-70
2023/02/05 05:38:32;;;;;;;33.15;12.93;;;3.80;99.90;;;3.43;100.00;99633.59;4962483;28;20047;-70
2023/02/05 05:43:45;;;;;;;31.33;14.25;;;3.90;99.90;;;3.38;100.00;99625.81;4959789;28;20646;-71
2023/02/05 05:46:21;;;;;;;38.60;14.25;;;3.90;99.90;;;3.46;100.00;99633.63;4959580;28;20142;-70
2023/02/05 05:48:59;;;;;;;36.42;14.60;;;3.90;99.90;;;3.32;100.00;99641.06;4972270;28;20140;-71
2023/02/05 05:51:28;;;;;;;34.50;14.40;;;4.00;99.90;;;3.43;100.00;99636.16;4959275;28;20133;-70
2023/02/05 05:53:56;;;;;;;36.25;13.82;;;4.00;99.90;;;3.57;100.00;99637.28;4959628;28;20477;-71
2023/02/05 05:56:23;;;;;;;34.55;13.77;;;4.00;99.90;;;3.77;100.00;99646.22;4962360;28;20097;-71
2023/02/05 05:58:51;;;;;;;29.75;13.38;;;4.00;99.90;;;3.80;100.00;99650.53;4961496;28;20457;-70
2023/02/05 06:01:20;;;;;;;29.08;12.43;;;3.90;99.90;;;3.96;100.00;99642.25;4974635;28;20702;-71
2023/02/05 06:03:48;;;;;;;27.90;13.18;;;4.10;99.90;;;3.93;100.00;99633.63;4941654;28;20060;-71
2023/02/05 06:06:15;;;;;;;26.95;12.73;;;4.10;99.90;;;3.98;100.00;99634.56;4964584;28;20077;-72
2023/02/05 06:08:43;;;;;;;28.60;13.75;;;4.10;99.90;;;3.96;100.00;99625.97;4959558;28;20149;-71
2023/02/05 06:11:10;;;;;;;32.03;13.00;;;4.20;99.90;;;4.01;100.00;99629.47;4964805;28;20077;-71
2023/02/05 06:13:38;;;;;;;31.75;13.18;;;4.20;99.90;;;4.08;100.00;99644.19;4960076;28;20082;-71
2023/02/05 06:16:05;;;;;;;34.40;13.63;;;4.20;99.90;;;4.01;100.00;99639.75;4960091;28;20055;-71
2023/02/05 06:18:32;;;;;;;34.50;12.95;;;4.30;99.90;;;4.10;100.00;99646.75;4960040;28;20078;-71
2023/02/05 06:21:04;;;;;;;36.08;12.88;;;4.30;99.90;;;4.28;100.00;99646.19;4963082;28;20057;-71
2023/02/05 06:23:33;;;;;;;29.15;11.98;;;4.40;99.90;;;4.43;100.00;99643.88;4963404;28;20137;-71
2023/02/05 06:26:00;;;;;;;41.08;14.30;;;4.50;99.90;;;4.37;100.00;99630.91;4960032;28;20790;-70
2023/02/05 06:28:27;;;;;;;34.20;12.82;;;4.50;99.90;;;4.38;100.00;99627.50;4944112;28;20059;-70
2023/02/05 06:30:54;;;;;;;27.20;10.88;;;4.60;99.90;;;4.38;100.00;99630.09;4958601;28;20053;-70
2023/02/05 06:33:21;;;;;;;37.00;12.23;;;4.60;99.90;;;4.31;100.00;99618.84;4956444;28;20185;-70
2023/02/05 06:35:48;;;;;;;26.58;10.65;;;4.70;99.90;;;4.42;100.00;99611.25;4960452;28;20042;-70
2023/02/05 06:38:18;;;;;;;33.88;12.43;;;4.60;99.90;;;4.29;100.00;99601.63;4954275;28;20051;-70
2023/02/05 06:40:47;;;;;;;32.38;12.07;;;4.60;99.90;;;4.53;100.00;99609.72;4945122;28;20054;-70
2023/02/05 06:43:14;;;;;;;30.27;13.85;;;4.60;99.90;;;4.26;100.00;99615.31;4957624;28;20086;-70
2023/02/05 06:45:41;;;;;;;32.90;13.30;;;4.60;99.90;;;4.47;100.00;99603.63;4954289;28;20751;-70
2023/02/05 06:48:08;;;;;;;28.00;12.95;;;4.60;99.90;;;4.38;100.00;99592.38;4957588;28;20057;-70
2023/02/05 06:50:35;;;;;;;36.08;14.10;;;4.50;99.90;;;4.09;100.00;99612.50;4957423;28;20053;-71
2023/02/05 06:53:03;;;;;;;32.28;14.27;;;4.60;99.90;;;3.87;100.00;99615.53;4957151;28;20054;-71
2023/02/05 06:55:30;;;;;;;34.65;14.30;;;4.60;99.90;;;3.97;100.00;99615.72;4952327;28;20244;-70
2023/02/05 06:57:57;;;;;;;40.58;14.50;;;4.60;99.90;;;3.90;100.00;99623.28;4957795;28;20043;-71
2023/02/05 07:00:24;;;;;;;39.92;16.23;;;4.50;99.90;;;3.92;100.00;99619.94;4961821;28;20058;-70
2023/02/05 07:02:51;;;;;;;38.20;16.60;;;4.50;99.90;;;3.79;100.00;99625.69;4962571;28;20047;-70
2023/02/05 07:05:18;;;;;;;39.17;15.25;;;4.50;99.90;;;3.76;100.00;99623.94;4976293;28;20573;-70
2023/02/05 07:07:46;;;;;;;31.38;14.88;;;4.60;99.90;;;3.87;100.00;99630.94;4959372;28;20051;-71
2023/02/05 07:10:15;;;;;;;37.97;14.80;;;4.60;99.90;;;3.77;100.00;99635.94;4961298;28;20474;-70
2023/02/05 07:12:42;;;;;;;43.17;16.70;;;4.50;99.90;;;3.76;100.00;99641.03;4960846;28;20089;-70
2023/02/05 07:15:10;;;;;;;44.15;16.75;;;4.50;99.90;;;3.69;100.00;99636.63;4959159;28;20051;-71
2023/02/05 07:17:38;;;;;;;42.50;18.17;;;4.50;99.90;;;3.73;100.00;99648.69;4963017;28;20058;-70
2023/02/05 07:20:05;;;;;;;38.35;17.15;;;4.40;99.90;;;3.70;100.00;99656.34;4958617;28;20060;-70
2023/02/05 07:22:33;;;;;;;45.13;18.63;;;4.40;99.90;;;3.66;100.00;99663.13;4959524;28;20075;-70
2023/02/05 07:25:01;;;;;;;35.25;17.63;;;4.40;99.90;;;3.66;100.00;99662.25;4959497;28;20055;-70
2023/02/05 07:27:30;;;;;;;36.20;17.38;;;4.40;99.90;;;3.72;100.00;99670.94;4960945;28;20105;-70
2023/02/05 07:29:58;;;;;;;41.95;17.40;;;4.40;99.90;;;3.84;100.00;99677.16;4959527;28;20493;-69
2023/02/05 07:32:25;;;;;;;44.35;18.48;;;4.40;99.90;;;3.74;100.00;99677.00;4960310;28;20055;-68
2023/02/05 07:34:52;;;;;;;37.00;16.70;;;4.50;99.90;;;3.97;100.00;99677.41;4961266;28;20051;-69
2023/02/05 07:37:19;;;;;;;40.35;16.25;;;4.40;99.90;;;4.05;100.00;99668.94;4957810;28;20051;-69
2023/02/05 07:39:47;;;;;;;35.53;16.30;;;4.40;99.90;;;3.82;100.00;99663.41;4962461;28;20057;-69
2023/02/05 07:42:14;;;;;;;44.40;18.98;;;4.40;99.90;;;3.75;100.00;99654.72;4959429;28;20375;-69
2023/02/05 07:44:41;;;;;;;46.42;18.40;;;4.40;99.90;;;3.76;100.00;99653.88;4961496;28;20054;-69
2023/02/05 07:47:08;;;;;;;46.30;18.27;;;4.40;99.90;;;3.89;100.00;99657.53;4958725;28;20489;-69
2023/02/05 07:49:35;;;;;;;47.95;20.13;;;4.30;99.90;;;3.76;100.00;99654.75;4961005;28;20046;-69
2023/02/05 07:52:03;;;;;;;51.95;20.27;;;4.30;99.90;;;3.73;100.00;99657.25;4959966;28;20069;-69
2023/02/05 07:54:29;;;;;;;45.22;18.48;;;4.40;99.90;;;3.78;100.00;99660.75;4957338;28;20047;-69
2023/02/05 07:56:58;;;;;;;48.28;20.08;;;4.30;99.90;;;3.81;100.00;99661.66;4961047;28;20054;-71
2023/02/05 07:59:26;;;;;;;74.85;25.33;;;4.40;99.90;;;3.74;100.00;99652.97;4958528;28;20134;-71
2023/02/05 08:01:53;;;;;;;62.85;24.50;;;4.40;99.90;;;3.80;100.00;99662.50;4973799;28;20058;-70
2023/02/05 08:04:20;;;;;;;52.72;21.35;;;4.50;99.90;;;3.80;100.00;99665.09;4958361;28;20083;-71
2023/02/05 08:06:47;;;;;;;55.65;22.67;;;4.50;99.90;;;3.71;100.00;99661.50;4960508;28;20450;-70
2023/02/05 08:09:15;;;;;;;52.05;21.50;;;4.50;99.90;;;3.83;100.00;99660.88;4974029;28;20069;-70
2023/02/05 08:11:42;;;;;;;46.25;18.30;;;4.40;99.90;;;3.94;100.00;99650.78;4958296;28;20055;-70
2023/02/05 08:14:09;;;;;;;42.97;18.45;;;4.30;99.90;;;3.81;100.00;99654.84;4959851;28;20051;-70
2023/02/05 08:16:36;;;;;;;41.08;19.60;;;4.20;99.90;;;3.83;100.00;99650.59;4958928;28;20054;-70
2023/02/05 08:19:03;;;;;;;41.92;17.77;;;4.30;99.90;;;4.02;100.00;99643.22;4959761;28;20478;-70
2023/02/05 08:21:30;;;;;;;39.83;19.13;;;4.30;99.90;;;3.92;100.00;99640.50;4962879;28;20043;-70
2023/02/05 08:23:58;;;;;;;41.85;19.95;;;4.20;99.90;;;3.71;100.00;99640.09;4962314;28;20047;-70
2023/02/05 08:26:25;;;;;;;53.60;22.05;;;4.30;99.90;;;3.71;100.00;99640.94;4958717;28;20439;-71
2023/02/05 08:28:54;;;;;;;56.35;23.40;;;4.40;99.90;;;3.63;100.00;99637.41;4960118;28;20049;-70
2023/02/05 08:31:21;;;;;;;54.47;23.50;;;4.40;99.90;;;3.77;100.00;99650.47;4961784;28;20051;-70
2023/02/05 08:33:49;;;;;;;55.28;25.33;;;4.50;99.90;;;3.83;100.00;99640.31;4961412;28;20058;-70
2023/02/05 08:36:16;;;;;;;55.28;23.92;;;4.40;99.90;;;3.75;100.00;99636.75;4960094;28;20796;-70
2023/02/05 08:38:43;;;;;;;57.90;25.67;;;4.50;99.90;;;3.77;100.00;99622.22;4960130;28;20043;-70
2023/02/05 08:41:13;;;;;;;56.75;26.27;;;4.50;99.90;;;3.76;100.00;99625.63;4959213;28;20514;-70
2023/02/05 08:43:43;;;;;;;56.90;22.00;;;4.60;99.90;;;3.89;100.00;99621.56;4960029;28;20495;-71
2023/02/05 08:46:13;;;;;;;56.13;26.38;;;4.50;99.90;;;3.86;100.00;99624.97;4975085;28;20493;-71
2023/02/05 08:48:41;;;;;;;57.08;27.30;;;4.60;99.90;;;3.91;100.00;99625.03;4959315;28;20055;-71
2023/02/05 08:51:10;;;;;;;44.17;23.48;;;4.70;99.90;;;3.97;100.00;99643.13;4956384;28;20058;-70
2023/02/05 08:53:40;;;;;;;48.78;23.20;;;4.70;99.90;;;3.98;100.00;99643.13;4959361;28;20093;-70
2023/02/05 08:56:09;;;;;;;51.97;24.05;;;4.70;99.90;;;3.91;100.00;99638.75;4961488;28;20050;-70
2023/02/05 08:58:38;;;;;;;40.10;20.40;;;4.80;99.90;;;3.97;100.00;99638.84;4945967;28;20790;-69
2023/02/05 09:01:16;;;;;;;44.17;20.70;;;4.80;99.90;;;4.22;100.00;99628.09;4961184;28;20069;-69
2023/02/05 09:03:44;;;;;;;43.63;22.92;;;4.70;99.90;;;4.08;100.00;99617.59;4955595;28;20059;-70
2023/02/05 09:06:14;;;;;;;53.78;23.20;;;4.60;99.90;;;3.89;100.00;99617.28;4960259;28;20089;-70
2023/02/05 09:08:42;;;;;;;45.25;21.15;;;4.60;99.90;;;4.25;100.00;99615.31;4975070;28;20051;-70
2023/02/05 09:11:09;;;;;;;45.15;22.40;;;4.60;99.90;;;4.34;100.00;99616.31;4959701;28;20518;-70
2023/02/05 09:13:39;;;;;;;48.90;23.40;;;4.60;99.90;;;4.34;100.00;99615.44;4961428;28;20051;-70
2023/02/05 09:16:10;;;;;;;40.92;21.15;;;4.70;99.90;;;4.39;100.00;99609.53;4955185;28;20047;-70
2023/02/05 09:18:37;;;;;;;45.55;20.83;;;4.70;99.90;;;4.47;100.00;99607.06;4955805;28;20145;-70
2023/02/05 09:21:09;;;;;;;46.88;22.92;;;4.70;99.90;;;4.34;100.00;99607.72;4958083;28;20185;-70
2023/02/05 09:23:37;;;;;;;49.27;23.77;;;4.80;99.90;;;4.38;100.00;99601.81;4960125;28;20727;-70
2023/02/05 09:26:05;;;;;;;36.47;20.90;;;4.80;99.90;;;4.65;100.00;99600.44;4955912;28;20325;-70
2023/02/05 09:28:33;;;;;;;42.05;23.40;;;4.90;99.90;;;4.54;100.00;99590.88;4959056;28;20059;-70
2023/02/05 09:31:08;;;;;;;45.85;22.42;;;4.90;99.90;;;4.68;100.00;99593.66;4956392;28;20046;-70
2023/02/05 09:33:39;;;;;;;41.22;20.73;;;5.00;99.90;;;4.93;100.00;99588.81;4956572;28;20055;-70
2023/02/05 09:36:21;;;;;;;46.08;23.80;;;5.10;99.90;;;4.74;100.00;99580.84;4958793;28;20077;-70
2023/02/05 09:38:51;;;;;;;42.67;21.85;;;5.10;99.90;;;5.04;100.00;99582.09;4944480;28;20141;-70
2023/02/05 09:42:01;;;;;;;41.25;23.00;;;5.20;99.90;;;5.01;100.00;99574.31;4955561;28;20066;-70
2023/02/05 09:45:10;;;;;;;42.80;22.08;;;5.30;99.90;;;4.97;100.00;99576.00;4956524;28;20098;-71
2023/02/05 09:47:49;;;;;;;39.05;22.33;;;5.30;99.90;;;5.19;100.00;99576.25;4946076;28;20059;-68
2023/02/05 09:50:28;;;;;;;38.97;21.08;;;5.50;99.90;;;5.37;100.00;99576.44;4956866;28;20074;-68
2023/02/05 09:53:04;;;;;;;28.23;17.17;;;5.50;99.90;;;5.53;100.00;99567.16;4968809;28;20130;-68
2023/02/05 09:55:38;;;;;;;35.85;19.10;;;;;;;5.63;100.00;99561.25;4943832;28;20827;-68
2023/02/05 09:58:20;;;;;;;33.65;18.95;;;;;;;5.52;100.00;99549.09;4972321;28;20073;-68
2023/02/05 10:00:58;;;;;;;36.40;19.90;;;;;;;5.63;100.00;99548.38;4955686;28;20074;-68
2023/02/05 10:03:39;;;;;;;31.00;19.13;;;;;;;5.59;100.00;99541.47;4974489;28;20051;-68
2023/02/05 10:06:12;;;;;;;33.88;19.80;;;;;;;5.80;100.00;99532.19;4958184;28;20510;-68
2023/02/05 10:09:01;;;;;;;29.77;17.30;;;;;;;5.71;100.00;99527.81;4955862;28;20518;-68
2023/02/05 10:11:52;;;;;;;31.65;18.88;;;;;;;5.61;100.00;99513.13;4958599;28;20604;-67
2023/02/05 10:14:42;;;;;;;29.35;17.92;;;;;;;5.57;100.00;99509.66;4962525;28;20051;-68
2023/02/05 10:17:10;;;;;;;29.05;18.23;;;;;;;5.66;100.00;99504.59;4961288;28;20047;-68
2023/02/05 10:20:00;;;;;;;30.75;17.90;;;;;;;5.65;100.00;99499.41;4960181;28;20504;-68
2023/02/05 10:23:00;;;;;;;28.63;18.48;;;;;;;5.45;100.00;99502.69;4959471;28;20090;-68
2023/02/05 10:25:53;;;;;;;33.15;18.67;;;;;;;5.36;100.00;99502.63;4961458;28;20054;-67
2023/02/05 10:28:48;;;;;;;26.80;17.27;;;;;;;5.55;100.00;99501.06;4960632;28;20054;-69
2023/02/05 10:31:57;;;;;;;27.58;17.90;;;;;;;5.79;100.00;99496.94;4961139;28;20466;-68
2023/02/05 10:35:06;;;;;;;27.42;17.55;;;;;;;5.61;100.00;99489.94;4973358;28;20218;-68
2023/02/05 10:37:46;;;;;;;27.83;16.65;;;;;;;5.45;100.00;99482.09;4943350;28;20055;-68
2023/02/05 10:40:17;;;;;;;29.75;17.75;;;;;;;5.54;100.00;99483.00;4961289;28;20441;-68
2023/02/05 10:42:49;;;;;;;32.40;17.27;;;;;;;5.59;100.00;99474.47;4960425;28;20055;-68